createdAt,value
2017-06-06T00:00:06.896Z,0
2017-06-06T00:01:07.615Z,0
2017-06-06T00:02:08.339Z,0
2017-06-06T00:03:09.063Z,0
2017-06-06T00:04:10.037Z,0
2017-06-06T00:05:10.759Z,0
2017-06-06T00:06:11.479Z,0
2017-06-06T00:07:12.203Z,0
2017-06-06T00:08:12.928Z,0
2017-06-06T00:09:13.898Z,0
2017-06-06T00:10:14.646Z,0
2017-06-06T00:11:15.395Z,0
2017-06-06T00:12:16.117Z,0
2017-06-06T00:13:16.838Z,0
2017-06-06T00:14:17.810Z,0
2017-06-06T00:15:18.534Z,0
2017-06-06T00:16:19.255Z,0
2017-06-06T00:17:19.981Z,0
2017-06-06T00:18:20.704Z,0
2017-06-06T00:19:21.678Z,0
2017-06-06T00:20:22.401Z,0
2017-06-06T00:21:23.125Z,0
2017-06-06T00:22:23.846Z,0
2017-06-06T00:23:24.567Z,0
2017-06-06T00:24:25.564Z,0
2017-06-06T00:25:26.294Z,0
2017-06-06T00:26:27.011Z,0
2017-06-06T00:27:27.733Z,0
2017-06-06T00:28:28.454Z,0
2017-06-06T00:29:29.429Z,0
2017-06-06T00:30:30.152Z,0
2017-06-06T00:31:30.876Z,0
2017-06-06T00:32:31.596Z,0
2017-06-06T00:33:32.319Z,0
2017-06-06T00:34:33.293Z,0
2017-06-06T00:35:34.013Z,0
2017-06-06T00:36:34.737Z,0
2017-06-06T00:37:35.459Z,0
2017-06-06T00:38:36.205Z,0
2017-06-06T00:39:37.179Z,0
2017-06-06T00:40:37.929Z,0
2017-06-06T00:41:38.651Z,0
2017-06-06T00:42:39.377Z,0
2017-06-06T00:43:40.097Z,0
2017-06-06T00:45:41.697Z,0
2017-06-06T00:46:42.420Z,0
2017-06-06T00:47:43.144Z,0
2017-06-06T00:48:43.869Z,0
2017-06-06T00:49:44.591Z,0
2017-06-06T00:50:45.561Z,0
2017-06-06T00:51:46.311Z,0
2017-06-06T00:52:47.033Z,0
2017-06-06T00:53:47.755Z,0
2017-06-06T00:54:48.480Z,0
2017-06-06T00:55:49.480Z,0
2017-06-06T00:56:50.200Z,0
2017-06-06T00:57:50.924Z,0
2017-06-06T00:58:51.648Z,0
2017-06-06T00:59:52.372Z,0
2017-06-06T01:00:53.345Z,0
2017-06-06T01:01:54.067Z,0
2017-06-06T01:02:54.794Z,0
2017-06-06T01:03:55.513Z,0
2017-06-06T01:04:56.236Z,0
2017-06-06T01:05:57.215Z,0
2017-06-06T01:06:57.936Z,0
2017-06-06T01:07:58.660Z,0
2017-06-06T01:08:59.386Z,0
2017-06-06T01:10:00.103Z,0
2017-06-06T01:11:01.078Z,0
2017-06-06T01:12:01.801Z,0
2017-06-06T01:13:02.526Z,0
2017-06-06T01:14:03.248Z,0
2017-06-06T01:15:03.970Z,0
2017-06-06T01:16:04.945Z,0
2017-06-06T01:17:05.669Z,0
2017-06-06T01:18:06.391Z,0
2017-06-06T01:19:07.117Z,0
2017-06-06T01:20:07.841Z,0
2017-06-06T01:21:08.845Z,0
2017-06-06T01:22:09.564Z,0
2017-06-06T01:23:10.289Z,0
2017-06-06T01:24:11.013Z,0
2017-06-06T01:25:11.736Z,0
2017-06-06T01:26:12.708Z,0
2017-06-06T01:27:13.434Z,0
2017-06-06T01:28:14.154Z,0
2017-06-06T01:29:14.879Z,0
2017-06-06T01:30:15.603Z,0
2017-06-06T01:31:16.325Z,0
2017-06-06T01:32:17.048Z,0
2017-06-06T01:33:17.772Z,0
2017-06-06T01:34:18.503Z,0
2017-06-06T01:35:19.220Z,0
2017-06-06T01:36:19.945Z,0
2017-06-06T01:37:20.668Z,0
2017-06-06T01:38:21.420Z,0
2017-06-06T01:39:22.143Z,0
2017-06-06T01:40:22.867Z,0
2017-06-06T01:41:23.594Z,0
2017-06-06T01:42:24.317Z,0
2017-06-06T01:43:25.036Z,0
2017-06-06T01:44:25.758Z,0
2017-06-06T01:45:26.483Z,0
2017-06-06T01:46:27.206Z,0
2017-06-06T01:47:27.929Z,0
2017-06-06T01:48:28.653Z,0
2017-06-06T01:49:29.375Z,0
2017-06-06T01:50:30.100Z,0
2017-06-06T01:51:30.820Z,0
2017-06-06T01:52:31.545Z,0
2017-06-06T01:53:32.266Z,0
2017-06-06T01:54:32.989Z,0
2017-06-06T01:55:33.712Z,0
2017-06-06T01:56:34.458Z,0
2017-06-06T01:57:35.181Z,0
2017-06-06T01:58:35.933Z,0
2017-06-06T01:59:36.678Z,0
2017-06-06T02:00:37.403Z,0
2017-06-06T02:01:38.128Z,0
2017-06-06T02:02:38.850Z,0
2017-06-06T02:03:39.577Z,0
2017-06-06T02:04:40.300Z,0
2017-06-06T02:05:41.026Z,0
2017-06-06T02:06:41.771Z,0
2017-06-06T02:07:42.495Z,0
2017-06-06T02:08:43.221Z,0
2017-06-06T02:09:43.942Z,0
2017-06-06T02:10:44.665Z,0
2017-06-06T02:11:45.639Z,0
2017-06-06T02:12:46.363Z,0
2017-06-06T02:13:47.088Z,0
2017-06-06T02:14:47.811Z,0
2017-06-06T02:15:48.536Z,0
2017-06-06T02:16:49.560Z,0
2017-06-06T02:17:50.285Z,0
2017-06-06T02:18:51.008Z,0
2017-06-06T02:19:51.730Z,0
2017-06-06T02:20:52.454Z,0
2017-06-06T02:21:53.432Z,0
2017-06-06T02:22:54.153Z,0
2017-06-06T02:23:54.874Z,0
2017-06-06T02:24:55.596Z,0
2017-06-06T02:25:56.320Z,0
2017-06-06T02:26:57.293Z,0
2017-06-06T02:27:58.016Z,0
2017-06-06T02:28:58.738Z,0
2017-06-06T02:29:59.461Z,4
2017-06-06T02:31:00.186Z,4
2017-06-06T02:32:01.206Z,0
2017-06-06T02:33:01.933Z,0
2017-06-06T02:34:02.655Z,0
2017-06-06T02:35:03.377Z,4
2017-06-06T02:36:04.098Z,4
2017-06-06T02:37:05.075Z,0
2017-06-06T02:38:05.800Z,4
2017-06-06T02:39:06.523Z,4
2017-06-06T02:40:07.271Z,4
2017-06-06T02:41:07.995Z,4
2017-06-06T02:42:08.971Z,4
2017-06-06T02:43:09.691Z,4
2017-06-06T02:44:10.413Z,8
2017-06-06T02:45:11.138Z,8
2017-06-06T02:46:11.861Z,12
2017-06-06T02:47:12.836Z,8
2017-06-06T02:48:13.557Z,8
2017-06-06T02:49:14.309Z,12
2017-06-06T02:50:15.032Z,16
2017-06-06T02:51:15.754Z,16
2017-06-06T02:52:16.732Z,20
2017-06-06T02:53:17.456Z,20
2017-06-06T02:54:18.182Z,24
2017-06-06T02:55:18.904Z,32
2017-06-06T02:56:19.631Z,32
2017-06-06T02:57:20.605Z,36
2017-06-06T02:58:21.331Z,44
2017-06-06T02:59:22.056Z,48
2017-06-06T03:00:22.782Z,56
2017-06-06T03:01:23.509Z,68
2017-06-06T03:02:24.486Z,76
2017-06-06T03:03:25.212Z,84
2017-06-06T03:04:25.937Z,88
2017-06-06T03:05:26.663Z,96
2017-06-06T03:06:27.389Z,100
2017-06-06T03:07:28.366Z,104
2017-06-06T03:08:29.093Z,108
2017-06-06T03:09:29.819Z,108
2017-06-06T03:10:30.546Z,112
2017-06-06T03:11:31.277Z,116
2017-06-06T03:12:32.251Z,124
2017-06-06T03:13:32.977Z,136
2017-06-06T03:14:33.705Z,152
2017-06-06T03:15:34.429Z,172
2017-06-06T03:16:35.160Z,188
2017-06-06T03:17:36.163Z,204
2017-06-06T03:18:36.890Z,212
2017-06-06T03:19:37.617Z,224
2017-06-06T03:20:38.343Z,224
2017-06-06T03:21:39.074Z,232
2017-06-06T03:22:40.049Z,236
2017-06-06T03:23:40.776Z,240
2017-06-06T03:24:41.505Z,252
2017-06-06T03:25:42.231Z,260
2017-06-06T03:26:42.959Z,280
2017-06-06T03:27:43.940Z,300
2017-06-06T03:28:44.668Z,316
2017-06-06T03:29:45.395Z,336
2017-06-06T03:30:46.150Z,356
2017-06-06T03:31:46.877Z,368
2017-06-06T03:32:47.854Z,380
2017-06-06T03:33:48.584Z,392
2017-06-06T03:34:49.311Z,404
2017-06-06T03:35:50.040Z,412
2017-06-06T03:36:50.765Z,424
2017-06-06T03:37:51.769Z,436
2017-06-06T03:38:52.495Z,444
2017-06-06T03:39:53.227Z,460
2017-06-06T03:40:53.955Z,472
2017-06-06T03:41:54.682Z,484
2017-06-06T03:42:55.658Z,492
2017-06-06T03:43:56.385Z,500
2017-06-06T03:44:57.116Z,508
2017-06-06T03:45:57.841Z,516
2017-06-06T03:46:58.571Z,524
2017-06-06T03:47:59.600Z,536
2017-06-06T03:49:00.327Z,544
2017-06-06T03:50:01.054Z,556
2017-06-06T03:51:01.782Z,572
2017-06-06T03:52:02.532Z,592
2017-06-06T03:53:03.513Z,620
2017-06-06T03:54:04.240Z,652
2017-06-06T03:55:04.967Z,688
2017-06-06T03:56:05.694Z,728
2017-06-06T03:57:06.423Z,780
2017-06-06T03:58:07.428Z,828
2017-06-06T03:59:08.155Z,908
2017-06-06T04:00:08.882Z,1004
2017-06-06T04:01:09.615Z,1124
2017-06-06T04:02:10.344Z,1228
2017-06-06T04:03:11.323Z,1376
2017-06-06T04:04:12.058Z,1520
2017-06-06T04:05:12.808Z,1656
2017-06-06T04:06:13.536Z,1784
2017-06-06T04:07:14.265Z,1908
2017-06-06T04:08:15.247Z,1976
2017-06-06T04:09:15.974Z,2004
2017-06-06T04:10:16.702Z,1996
2017-06-06T04:11:17.434Z,1984
2017-06-06T04:12:18.161Z,1940
2017-06-06T04:13:19.138Z,1888
2017-06-06T04:14:19.866Z,1848
2017-06-06T04:15:20.598Z,1856
2017-06-06T04:16:21.327Z,1860
2017-06-06T04:17:22.056Z,1920
2017-06-06T04:18:23.036Z,1940
2017-06-06T04:19:23.764Z,1972
2017-06-06T04:20:24.494Z,2020
2017-06-06T04:21:25.227Z,2072
2017-06-06T04:22:25.955Z,2096
2017-06-06T04:23:26.987Z,2120
2017-06-06T04:24:27.713Z,2164
2017-06-06T04:25:28.443Z,2216
2017-06-06T04:26:29.177Z,2264
2017-06-06T04:27:29.904Z,2284
2017-06-06T04:28:30.882Z,2324
2017-06-06T04:29:31.611Z,2304
2017-06-06T04:30:32.339Z,2344
2017-06-06T04:31:33.067Z,2376
2017-06-06T04:32:33.796Z,2416
2017-06-06T04:33:34.777Z,2452
2017-06-06T04:34:35.506Z,2484
2017-06-06T04:35:36.235Z,2508
2017-06-06T04:36:36.966Z,2548
2017-06-06T04:37:37.721Z,2580
2017-06-06T04:38:38.700Z,2576
2017-06-06T04:39:39.430Z,2580
2017-06-06T04:40:40.161Z,2512
2017-06-06T04:41:40.889Z,2508
2017-06-06T04:42:41.619Z,2512
2017-06-06T04:43:42.600Z,2528
2017-06-06T04:44:43.327Z,2560
2017-06-06T04:45:44.058Z,2572
2017-06-06T04:46:44.788Z,2608
2017-06-06T04:47:45.516Z,2604
2017-06-06T04:48:46.524Z,2584
2017-06-06T04:49:47.253Z,2620
2017-06-06T04:50:47.984Z,2652
2017-06-06T04:51:48.711Z,2724
2017-06-06T04:52:49.440Z,2824
2017-06-06T04:53:50.421Z,2936
2017-06-06T04:54:51.155Z,3080
2017-06-06T04:55:51.884Z,3228
2017-06-06T04:56:52.619Z,3304
2017-06-06T04:57:53.346Z,3348
2017-06-06T04:58:54.331Z,3376
2017-06-06T04:59:55.058Z,3400
2017-06-06T05:00:55.789Z,3380
2017-06-06T05:01:56.524Z,3348
2017-06-06T05:02:57.254Z,3284
2017-06-06T05:03:58.239Z,3240
2017-06-06T05:04:58.970Z,3192
2017-06-06T05:05:59.702Z,3168
2017-06-06T05:07:00.434Z,3132
2017-06-06T05:08:01.164Z,3148
2017-06-06T05:09:02.145Z,3228
2017-06-06T05:10:02.876Z,3240
2017-06-06T05:11:03.609Z,3212
2017-06-06T05:12:04.339Z,3248
2017-06-06T05:13:05.073Z,3272
2017-06-06T05:14:06.053Z,3388
2017-06-06T05:15:06.783Z,3572
2017-06-06T05:16:07.516Z,3828
2017-06-06T05:17:08.248Z,4028
2017-06-06T05:18:08.979Z,4316
2017-06-06T05:19:09.961Z,4544
2017-06-06T05:20:10.700Z,4788
2017-06-06T05:21:11.453Z,4920
2017-06-06T05:22:12.186Z,4904
2017-06-06T05:23:12.915Z,4820
2017-06-06T05:24:13.895Z,4820
2017-06-06T05:25:14.631Z,4912
2017-06-06T05:26:15.387Z,4984
2017-06-06T05:27:16.120Z,5020
2017-06-06T05:28:16.850Z,5196
2017-06-06T05:29:17.829Z,5380
2017-06-06T05:30:18.560Z,5652
2017-06-06T05:31:19.291Z,5652
2017-06-06T05:33:35.252Z,5564
2017-06-06T05:34:36.233Z,5492
2017-06-06T05:35:36.966Z,5408
2017-06-06T05:36:37.696Z,5496
2017-06-06T05:37:38.430Z,5512
2017-06-06T05:38:39.161Z,5492
2017-06-06T05:39:40.142Z,5436
2017-06-06T05:40:40.872Z,5524
2017-06-06T05:41:41.605Z,5452
2017-06-06T05:42:42.337Z,5440
2017-06-06T05:43:43.068Z,5476
2017-06-06T05:44:44.049Z,5488
2017-06-06T05:45:44.782Z,5408
2017-06-06T05:46:45.541Z,5780
2017-06-06T05:47:46.269Z,5988
2017-06-06T05:48:47.042Z,5836
2017-06-06T05:49:47.985Z,5996
2017-06-06T05:50:48.717Z,6236
2017-06-06T05:51:49.449Z,6388
2017-06-06T05:52:50.180Z,6612
2017-06-06T05:53:50.913Z,6784
2017-06-06T05:54:51.897Z,6892
2017-06-06T05:55:52.628Z,6872
2017-06-06T05:56:53.387Z,7076
2017-06-06T05:57:54.117Z,7176
2017-06-06T05:58:54.857Z,7276
2017-06-06T05:59:55.830Z,7236
2017-06-06T06:00:56.560Z,7180
2017-06-06T06:01:57.290Z,7384
2017-06-06T06:02:58.025Z,7584
2017-06-06T06:03:58.757Z,7500
2017-06-06T06:04:59.738Z,7128
2017-06-06T06:06:00.472Z,7064
2017-06-06T06:07:01.233Z,6904
2017-06-06T06:08:01.965Z,6848
2017-06-06T06:09:02.696Z,6952
2017-06-06T06:10:03.682Z,7072
2017-06-06T06:11:04.415Z,6940
2017-06-06T06:12:05.144Z,6816
2017-06-06T06:13:05.878Z,6716
2017-06-06T06:14:06.611Z,6820
2017-06-06T06:15:07.596Z,7116
2017-06-06T06:16:08.329Z,7752
2017-06-06T06:17:09.063Z,8332
2017-06-06T06:18:09.794Z,8156
2017-06-06T06:19:10.525Z,8196
2017-06-06T06:20:11.535Z,8016
2017-06-06T06:21:12.292Z,8128
2017-06-06T06:22:13.027Z,7868
2017-06-06T06:23:13.762Z,7704
2017-06-06T06:24:14.492Z,7788
2017-06-06T06:25:15.474Z,7832
2017-06-06T06:26:16.206Z,7744
2017-06-06T06:27:16.938Z,7628
2017-06-06T06:28:17.673Z,7940
2017-06-06T06:29:18.405Z,8444
2017-06-06T06:30:19.390Z,8844
2017-06-06T06:31:20.120Z,9356
2017-06-06T06:32:20.854Z,9556
2017-06-06T06:33:21.586Z,9796
2017-06-06T06:34:22.320Z,9904
2017-06-06T06:35:23.353Z,10180
2017-06-06T06:36:24.088Z,10376
2017-06-06T06:37:24.822Z,10352
2017-06-06T06:38:25.557Z,10136
2017-06-06T06:39:26.291Z,10152
2017-06-06T06:40:27.276Z,9928
2017-06-06T06:41:28.033Z,9588
2017-06-06T06:42:28.768Z,9396
2017-06-06T06:43:29.500Z,9072
2017-06-06T06:44:30.235Z,8756
2017-06-06T06:45:31.220Z,8712
2017-06-06T06:46:31.950Z,8016
2017-06-06T06:47:32.686Z,7628
2017-06-06T06:48:33.423Z,7320
2017-06-06T06:49:34.176Z,7392
2017-06-06T06:50:35.160Z,7300
2017-06-06T06:51:35.893Z,7232
2017-06-06T06:52:36.626Z,7140
2017-06-06T06:53:37.358Z,7032
2017-06-06T06:54:38.093Z,7128
2017-06-06T06:55:39.076Z,6900
2017-06-06T06:56:39.810Z,6660
2017-06-06T06:57:40.543Z,6636
2017-06-06T06:58:41.278Z,6672
2017-06-06T06:59:42.008Z,6812
2017-06-06T07:00:42.992Z,6984
2017-06-06T07:01:43.725Z,7252
2017-06-06T07:02:44.482Z,7360
2017-06-06T07:03:45.216Z,7740
2017-06-06T07:04:45.974Z,8064
2017-06-06T07:05:46.982Z,8240
2017-06-06T07:06:47.713Z,8464
2017-06-06T07:07:48.446Z,8332
2017-06-06T07:08:49.180Z,8508
2017-06-06T07:09:49.912Z,8712
2017-06-06T07:10:50.897Z,9124
2017-06-06T07:11:51.631Z,9480
2017-06-06T07:12:52.362Z,9804
2017-06-06T07:13:53.095Z,9636
2017-06-06T07:14:53.829Z,9688
2017-06-06T07:15:54.812Z,9484
2017-06-06T07:16:55.544Z,9860
2017-06-06T07:17:56.277Z,9060
2017-06-06T07:18:57.010Z,8208
2017-06-06T07:19:57.740Z,7920
2017-06-06T07:20:58.723Z,7424
2017-06-06T07:21:59.456Z,7020
2017-06-06T07:23:00.187Z,6748
2017-06-06T07:24:00.920Z,6288
2017-06-06T07:25:01.653Z,6096
2017-06-06T07:26:02.635Z,5816
2017-06-06T07:27:03.366Z,5908
2017-06-06T07:28:04.098Z,6332
2017-06-06T07:29:04.829Z,6632
2017-06-06T07:30:05.592Z,6680
2017-06-06T07:31:06.625Z,6664
2017-06-06T07:32:07.357Z,6832
2017-06-06T07:33:08.090Z,6940
2017-06-06T07:34:08.826Z,7140
2017-06-06T07:35:09.553Z,7592
2017-06-06T07:36:10.536Z,8560
2017-06-06T07:37:11.266Z,9132
2017-06-06T07:38:12.000Z,9348
2017-06-06T07:39:12.755Z,9324
2017-06-06T07:40:13.487Z,8968
2017-06-06T07:41:14.468Z,8980
2017-06-06T07:42:15.201Z,9048
2017-06-06T07:43:15.932Z,9288
2017-06-06T07:44:16.665Z,9868
2017-06-06T07:45:17.424Z,10096
2017-06-06T07:46:18.459Z,10308
2017-06-06T07:47:19.220Z,10548
2017-06-06T07:48:19.953Z,10944
2017-06-06T07:49:20.688Z,10900
2017-06-06T07:50:21.421Z,10144
2017-06-06T07:51:22.406Z,9680
2017-06-06T07:52:23.138Z,9336
2017-06-06T07:53:23.873Z,8736
2017-06-06T07:54:24.606Z,8168
2017-06-06T07:55:25.337Z,7776
2017-06-06T07:56:26.322Z,7940
2017-06-06T07:57:27.054Z,8252
2017-06-06T07:58:27.784Z,8264
2017-06-06T07:59:28.519Z,8424
2017-06-06T08:00:29.249Z,8596
2017-06-06T08:01:30.230Z,8832
2017-06-06T08:02:30.965Z,8724
2017-06-06T08:03:31.699Z,8632
2017-06-06T08:04:32.430Z,8332
2017-06-06T08:05:33.165Z,8884
2017-06-06T08:06:34.170Z,9800
2017-06-06T08:07:34.930Z,10272
2017-06-06T08:08:35.688Z,10544
2017-06-06T08:09:36.421Z,10352
2017-06-06T08:10:37.154Z,10296
2017-06-06T08:11:38.140Z,11316
2017-06-06T08:12:38.872Z,11908
2017-06-06T08:13:39.608Z,12040
2017-06-06T08:14:40.341Z,12208
2017-06-06T08:15:41.074Z,12868
2017-06-06T08:16:42.058Z,13100
2017-06-06T08:17:42.793Z,12972
2017-06-06T08:18:43.528Z,12788
2017-06-06T08:19:44.261Z,12044
2017-06-06T08:20:44.995Z,12632
2017-06-06T08:21:45.980Z,11376
2017-06-06T08:22:46.714Z,10220
2017-06-06T08:23:47.472Z,10908
2017-06-06T08:24:48.210Z,10708
2017-06-06T08:25:48.944Z,10236
2017-06-06T08:26:49.977Z,9564
2017-06-06T08:27:50.739Z,13644
2017-06-06T08:28:51.474Z,14496
2017-06-06T08:29:52.208Z,12908
2017-06-06T08:30:52.971Z,10804
2017-06-06T08:31:53.955Z,9960
2017-06-06T08:32:54.690Z,10172
2017-06-06T08:33:55.424Z,8880
2017-06-06T08:34:56.159Z,6340
2017-06-06T08:35:56.894Z,5484
2017-06-06T08:36:57.875Z,5088
2017-06-06T08:37:58.633Z,4640
2017-06-06T08:38:59.337Z,3732
2017-06-06T08:40:00.072Z,3588
2017-06-06T08:41:00.805Z,3980
2017-06-06T08:42:01.788Z,3580
2017-06-06T08:43:02.522Z,3364
2017-06-06T08:44:03.256Z,3856
2017-06-06T08:45:03.985Z,3772
2017-06-06T08:46:04.720Z,4384
2017-06-06T08:47:05.702Z,4580
2017-06-06T08:48:06.436Z,4172
2017-06-06T08:49:07.166Z,4072
2017-06-06T08:50:07.900Z,3500
2017-06-06T08:51:08.629Z,3684
2017-06-06T08:52:09.612Z,4752
2017-06-06T08:53:10.344Z,4896
2017-06-06T08:54:11.075Z,5616
2017-06-06T08:55:11.809Z,5108
2017-06-06T08:56:12.540Z,5336
2017-06-06T08:57:13.521Z,5128
2017-06-06T08:58:14.255Z,3932
2017-06-06T08:59:14.983Z,3976
2017-06-06T09:00:15.717Z,3900
2017-06-06T09:01:16.449Z,4588
2017-06-06T09:02:17.430Z,4488
2017-06-06T09:03:18.193Z,3420
2017-06-06T09:04:18.921Z,3304
2017-06-06T09:05:19.652Z,3608
2017-06-06T09:06:20.381Z,4864
2017-06-06T09:07:21.365Z,6568
2017-06-06T09:08:22.094Z,6720
2017-06-06T09:09:22.826Z,5600
2017-06-06T09:10:23.582Z,5680
2017-06-06T09:11:24.313Z,6044
2017-06-06T09:12:25.343Z,4912
2017-06-06T09:13:26.077Z,5020
2017-06-06T09:14:26.838Z,4628
2017-06-06T09:15:27.597Z,4420
2017-06-06T09:16:28.328Z,3944
2017-06-06T09:17:29.310Z,4020
2017-06-06T09:18:30.043Z,3612
2017-06-06T09:19:30.773Z,3472
2017-06-06T09:20:31.504Z,3364
2017-06-06T09:21:32.235Z,3680
2017-06-06T09:22:33.215Z,4032
2017-06-06T09:23:33.946Z,4736
2017-06-06T09:24:34.675Z,5204
2017-06-06T09:25:35.405Z,5344
2017-06-06T09:26:36.132Z,5444
2017-06-06T09:27:37.165Z,5360
2017-06-06T09:28:37.896Z,5524
2017-06-06T09:29:38.622Z,5484
2017-06-06T09:30:39.353Z,5244
2017-06-06T09:31:40.082Z,5068
2017-06-06T09:32:41.117Z,5296
2017-06-06T09:33:41.845Z,6388
2017-06-06T09:34:42.578Z,7960
2017-06-06T09:35:43.309Z,9104
2017-06-06T09:36:44.040Z,9708
2017-06-06T09:37:45.025Z,10676
2017-06-06T09:38:45.783Z,11388
2017-06-06T09:39:46.515Z,11328
2017-06-06T09:40:47.249Z,10820
2017-06-06T09:41:47.980Z,9808
2017-06-06T09:42:48.961Z,8256
2017-06-06T09:43:49.692Z,7672
2017-06-06T09:44:50.423Z,7772
2017-06-06T09:45:51.153Z,8036
2017-06-06T09:46:51.886Z,8516
2017-06-06T09:47:52.867Z,9776
2017-06-06T09:48:53.598Z,10288
2017-06-06T09:49:54.331Z,9652
2017-06-06T09:50:55.061Z,9120
2017-06-06T09:51:55.795Z,7644
2017-06-06T09:52:56.777Z,7988
2017-06-06T09:53:57.509Z,7792
2017-06-06T09:54:58.243Z,7252
2017-06-06T09:55:58.973Z,8236
2017-06-06T09:56:59.709Z,7636
2017-06-06T09:58:00.691Z,8484
2017-06-06T09:59:01.419Z,8520
2017-06-06T10:00:02.151Z,8656
2017-06-06T10:01:02.881Z,8476
2017-06-06T10:02:03.612Z,8240
2017-06-06T10:03:04.594Z,8756
2017-06-06T10:04:05.325Z,11224
2017-06-06T10:05:06.059Z,9756
2017-06-06T10:06:06.790Z,8932
2017-06-06T10:07:07.524Z,8044
2017-06-06T10:08:08.505Z,7968
2017-06-06T10:09:09.235Z,7552
2017-06-06T10:10:09.966Z,7664
2017-06-06T10:11:10.698Z,7712
2017-06-06T10:12:11.433Z,7980
2017-06-06T10:13:12.412Z,7380
2017-06-06T10:14:13.144Z,6264
2017-06-06T10:15:13.898Z,4656
2017-06-06T10:16:14.630Z,3396
2017-06-06T10:17:15.360Z,3684
2017-06-06T10:18:16.338Z,4820
2017-06-06T10:19:17.067Z,5260
2017-06-06T10:20:17.801Z,6100
2017-06-06T10:21:18.530Z,6436
2017-06-06T10:22:19.259Z,5516
2017-06-06T10:23:20.239Z,5220
2017-06-06T10:24:20.966Z,7304
2017-06-06T10:25:21.698Z,10276
2017-06-06T10:26:22.430Z,12112
2017-06-06T10:27:23.163Z,13576
2017-06-06T10:28:24.169Z,12868
2017-06-06T10:29:24.899Z,10392
2017-06-06T10:30:25.634Z,11172
2017-06-06T10:31:26.368Z,11804
2017-06-06T10:32:27.095Z,9788
2017-06-06T10:33:28.079Z,7396
2017-06-06T10:34:28.809Z,9192
2017-06-06T10:35:29.542Z,12032
2017-06-06T10:36:30.273Z,12780
2017-06-06T10:37:31.029Z,8604
2017-06-06T10:38:32.009Z,7896
2017-06-06T10:39:32.742Z,8924
2017-06-06T10:40:33.472Z,9516
2017-06-06T10:41:34.204Z,11132
2017-06-06T10:42:34.934Z,13960
2017-06-06T10:43:35.915Z,14288
2017-06-06T10:44:36.645Z,11604
2017-06-06T10:45:37.374Z,8104
2017-06-06T10:46:38.135Z,10448
2017-06-06T10:47:38.869Z,14272
2017-06-06T10:48:39.850Z,12104
2017-06-06T10:49:40.583Z,11732
2017-06-06T10:50:41.317Z,10108
2017-06-06T10:51:42.049Z,5768
2017-06-06T10:52:42.778Z,6100
2017-06-06T10:53:43.762Z,10892
2017-06-06T10:54:44.491Z,8108
2017-06-06T10:55:45.221Z,5060
2017-06-06T10:56:45.953Z,3876
2017-06-06T10:57:46.684Z,4568
2017-06-06T10:58:47.664Z,5332
2017-06-06T10:59:48.395Z,5284
2017-06-06T11:00:49.149Z,4876
2017-06-06T11:01:49.884Z,5716
2017-06-06T11:02:50.612Z,6840
2017-06-06T11:03:51.643Z,7272
2017-06-06T11:04:52.395Z,7456
2017-06-06T11:05:53.126Z,7484
2017-06-06T11:06:53.856Z,7672
2017-06-06T11:07:54.612Z,9592
2017-06-06T11:08:55.591Z,11212
2017-06-06T11:09:56.324Z,13584
2017-06-06T11:10:57.057Z,15688
2017-06-06T11:11:57.786Z,18496
2017-06-06T11:12:58.531Z,16768
2017-06-06T11:13:59.525Z,15204
2017-06-06T11:15:00.253Z,13760
2017-06-06T11:16:00.985Z,13428
2017-06-06T11:17:01.719Z,12836
2017-06-06T11:18:02.448Z,16800
2017-06-06T11:19:03.432Z,20128
2017-06-06T11:20:04.163Z,20928
2017-06-06T11:21:04.896Z,23488
2017-06-06T11:22:05.627Z,16864
2017-06-06T11:23:06.356Z,12968
2017-06-06T11:24:07.341Z,13108
2017-06-06T11:25:08.073Z,13892
2017-06-06T11:26:08.806Z,13068
2017-06-06T11:27:09.537Z,12696
2017-06-06T11:28:10.270Z,13564
2017-06-06T11:29:11.253Z,12912
2017-06-06T11:30:11.982Z,11136
2017-06-06T11:31:12.712Z,9136
2017-06-06T11:32:13.443Z,9260
2017-06-06T11:33:14.174Z,9048
2017-06-06T11:34:15.180Z,8280
2017-06-06T11:35:15.911Z,7232
2017-06-06T11:36:16.640Z,6732
2017-06-06T11:37:17.370Z,5552
2017-06-06T11:38:18.098Z,4876
2017-06-06T11:39:19.080Z,4300
2017-06-06T11:40:19.812Z,5060
2017-06-06T11:41:20.541Z,5688
2017-06-06T11:42:21.270Z,6568
2017-06-06T11:43:22.000Z,7348
2017-06-06T11:44:22.981Z,8544
2017-06-06T11:45:23.710Z,10096
2017-06-06T11:46:24.442Z,10872
2017-06-06T11:47:25.171Z,10648
2017-06-06T11:48:25.901Z,11420
2017-06-06T11:49:26.906Z,11904
2017-06-06T11:50:27.636Z,9888
2017-06-06T11:51:28.366Z,8544
2017-06-06T11:52:29.096Z,10160
2017-06-06T11:53:29.824Z,14708
2017-06-06T11:54:30.807Z,13924
2017-06-06T11:55:31.538Z,11984
2017-06-06T11:56:32.270Z,10352
2017-06-06T11:57:33.003Z,10388
2017-06-06T11:58:33.731Z,11936
2017-06-06T11:59:34.713Z,11364
2017-06-06T12:00:35.445Z,10728
2017-06-06T12:01:36.177Z,11368
2017-06-06T12:02:36.908Z,13056
2017-06-06T12:03:37.639Z,13644
2017-06-06T12:04:38.621Z,13172
2017-06-06T12:05:39.352Z,10952
2017-06-06T12:06:40.107Z,9392
2017-06-06T12:07:40.836Z,9856
2017-06-06T12:08:41.596Z,11256
2017-06-06T12:09:42.581Z,14212
2017-06-06T12:10:43.311Z,20160
2017-06-06T12:11:44.069Z,31168
2017-06-06T12:12:44.799Z,16320
2017-06-06T12:13:45.531Z,14468
2017-06-06T12:14:46.590Z,18336
2017-06-06T12:15:47.322Z,24448
2017-06-06T12:16:48.051Z,31328
2017-06-06T12:17:48.785Z,24608
2017-06-06T12:18:49.518Z,20192
2017-06-06T12:19:50.527Z,23776
2017-06-06T12:20:51.258Z,21600
2017-06-06T12:21:51.993Z,24000
2017-06-06T12:22:52.749Z,22624
2017-06-06T12:23:53.482Z,29888
2017-06-06T12:24:54.468Z,25248
2017-06-06T12:25:55.203Z,64320
2017-06-06T12:26:55.937Z,62752
2017-06-06T12:27:56.673Z,56928
2017-06-06T12:28:57.411Z,44864
2017-06-06T12:29:58.399Z,39328
2017-06-06T12:30:59.137Z,74336
2017-06-06T12:31:59.872Z,27520
2017-06-06T12:33:00.609Z,30176
2017-06-06T12:34:01.349Z,76064
2017-06-06T12:35:02.340Z,65376
2017-06-06T12:36:03.074Z,91840
2017-06-06T12:37:03.814Z,98912
2017-06-06T12:38:04.560Z,96032
2017-06-06T12:39:05.304Z,103488
2017-06-06T12:40:06.303Z,104000
2017-06-06T12:41:07.047Z,102624
2017-06-06T12:42:07.798Z,58912
2017-06-06T12:43:08.536Z,79136
2017-06-06T12:44:09.282Z,104096
2017-06-06T12:45:10.299Z,91328
2017-06-06T12:46:11.040Z,21408
2017-06-06T12:47:11.787Z,101408
2017-06-06T12:48:12.528Z,54816
2017-06-06T12:49:13.272Z,35072
2017-06-06T12:50:14.260Z,30848
2017-06-06T12:51:15.002Z,26464
2017-06-06T12:52:15.744Z,94272
2017-06-06T12:53:16.508Z,96224
2017-06-06T12:54:17.251Z,101440
2017-06-06T12:55:18.247Z,98496
2017-06-06T12:56:18.989Z,94080
2017-06-06T12:57:19.734Z,96768
2017-06-06T12:58:20.476Z,98720
2017-06-06T12:59:21.246Z,94112
2017-06-06T13:00:22.243Z,92736
2017-06-06T13:01:23.009Z,65024
2017-06-06T13:02:23.751Z,97152
2017-06-06T13:03:24.511Z,92992
2017-06-06T13:04:25.240Z,29056
2017-06-06T13:05:26.236Z,42560
2017-06-06T13:06:26.977Z,17696
2017-06-06T13:07:27.720Z,90400
2017-06-06T13:08:28.465Z,98080
2017-06-06T13:09:29.207Z,97152
2017-06-06T13:10:30.201Z,96864
2017-06-06T13:11:30.946Z,96640
2017-06-06T13:12:31.689Z,91136
2017-06-06T13:13:32.453Z,99488
2017-06-06T13:14:33.199Z,38112
2017-06-06T13:15:34.238Z,25856
2017-06-06T13:16:34.978Z,25056
2017-06-06T13:17:35.722Z,45568
2017-06-06T13:18:36.463Z,11468
2017-06-06T13:19:37.204Z,8868
2017-06-06T13:20:38.197Z,6676
2017-06-06T13:21:38.937Z,6492
2017-06-06T13:22:39.675Z,9260
2017-06-06T13:23:40.412Z,12096
2017-06-06T13:24:41.152Z,14500
2017-06-06T13:25:42.148Z,78336
2017-06-06T13:26:42.893Z,101408
2017-06-06T13:27:43.636Z,94112
2017-06-06T13:28:44.375Z,97312
2017-06-06T13:29:45.118Z,88384
2017-06-06T13:30:46.110Z,17168
2017-06-06T13:31:46.848Z,10100
2017-06-06T13:32:47.587Z,9744
2017-06-06T13:33:48.332Z,97568
2017-06-06T13:34:49.071Z,92672
2017-06-06T13:35:50.065Z,91392
2017-06-06T13:36:50.808Z,100352
2017-06-06T13:37:51.552Z,12916
2017-06-06T13:38:52.297Z,49760
2017-06-06T13:39:53.036Z,94816
2017-06-06T13:40:54.026Z,90752
2017-06-06T13:41:54.767Z,91488
2017-06-06T13:42:55.510Z,93952
2017-06-06T13:43:56.254Z,83200